Time;durP1;ratioP1;P1;durP2;ratioP2;P2;SDS_P1;SDS_P2;PMS_P1;PMS_P2;Temp;Humidity;BMP_temperature;BMP_pressure;BME280_temperature;BME280_humidity;BME280_pressure;Samples;Min_cycle;Max_cycle;Signal;HPM_P1;HPM_P2
2023/10/24 00:00:00;;;;;;;8.90;8.10;;;;;;;13.57;74.81;93032.38;5050002;28;20236;-79
2023/10/24 00:02:26;;;;;;;8.93;8.20;;;;;;;13.51;74.47;93034.28;5050199;28;20297;-79
2023/10/24 00:04:51;;;;;;;8.67;7.97;;;;;;;13.47;74.33;93030.69;5045795;28;20285;-79
2023/10/24 00:07:17;;;;;;;8.90;8.47;;;;;;;13.40;74.11;93021.63;5050282;28;20194;-78
2023/10/24 00:09:42;;;;;;;9.53;8.90;;;;;;;13.22;73.55;92983.06;5049914;28;20217;-79
2023/10/24 00:12:08;;;;;;;8.03;7.73;;;;;;;13.40;74.23;93026.88;5044464;28;20201;-79
2023/10/24 00:14:33;;;;;;;8.10;7.60;;;;;;;13.39;73.85;93023.44;5048529;28;20230;-79
2023/10/24 00:16:58;;;;;;;7.57;7.27;;;;;;;13.25;74.06;93011.34;5046689;28;20214;-79
2023/10/24 00:19:24;;;;;;;9.10;8.50;;;;;;;13.34;73.98;93026.16;5049781;28;20244;-79
2023/10/24 00:21:49;;;;;;;8.57;7.93;;;;;;;13.17;74.94;93020.63;5035164;28;20178;-78
2023/10/24 00:24:14;;;;;;;9.30;8.43;;;;;;;13.27;74.81;93017.88;5049034;28;20968;-85
2023/10/24 00:26:40;;;;;;;7.97;7.63;;;;;;;13.14;74.35;93018.56;5044125;28;20189;-81
2023/10/24 00:29:05;;;;;;;8.20;7.70;;;;;;;13.21;74.64;93012.97;5046448;28;20285;-81
2023/10/24 00:31:31;;;;;;;8.13;7.63;;;;;;;13.06;74.38;93016.56;5050343;28;20182;-81
2023/10/24 00:33:56;;;;;;;7.60;7.30;;;;;;;12.86;74.79;92999.25;5049075;28;20259;-81
2023/10/24 00:36:21;;;;;;;8.13;7.73;;;;;;;12.72;76.05;93006.25;5037315;28;20182;-81
2023/10/24 00:38:47;;;;;;;8.17;7.50;;;;;;;12.83;76.15;93012.16;5048239;28;20237;-80
2023/10/24 00:41:12;;;;;;;8.70;8.10;;;;;;;12.92;74.58;93005.22;5048848;28;20197;-79
2023/10/24 00:43:37;;;;;;;8.37;8.00;;;;;;;12.77;75.75;93005.41;5043573;28;20217;-80
2023/10/24 00:46:04;;;;;;;8.90;8.17;;;;;;;12.83;76.05;93004.28;5049095;28;20233;-79
2023/10/24 00:48:30;;;;;;;7.53;7.27;;;;;;;12.75;76.10;92999.66;5045299;28;20229;-80
2023/10/24 00:50:55;;;;;;;7.77;7.47;;;;;;;12.70;75.16;93016.22;5050228;28;20194;-80
2023/10/24 00:53:21;;;;;;;9.30;8.70;;;;;;;12.73;74.95;93007.81;5049394;28;20225;-81
2023/10/24 00:55:47;;;;;;;8.50;8.10;;;;;;;12.75;75.06;93015.38;5049640;28;20228;-80
2023/10/24 00:58:13;;;;;;;9.17;8.77;;;;;;;12.69;74.67;93008.66;5048714;28;20257;-80
2023/10/24 01:00:43;;;;;;;9.17;8.77;;;;;;;12.75;74.69;93012.78;5046330;28;20184;-80
2023/10/24 01:03:09;;;;;;;8.60;8.10;;;;;;;12.80;75.23;93012.72;5049403;28;20260;-80
2023/10/24 01:05:35;;;;;;;8.53;7.83;;;;;;;12.72;75.06;93006.25;5049040;28;20186;-79
2023/10/24 01:08:01;;;;;;;8.90;8.43;;;;;;;12.78;75.34;93006.97;5049244;28;20228;-81
2023/10/24 01:10:26;;;;;;;9.83;9.03;;;;;;;12.71;75.66;93017.03;5049464;28;20217;-81
2023/10/24 01:12:52;;;;;;;8.97;8.37;;;;;;;12.72;76.62;93013.31;5048117;28;20217;-82
2023/10/24 01:15:17;;;;;;;9.60;9.00;;;;;;;12.69;76.75;92996.34;5049624;28;20250;-80
2023/10/24 01:17:50;;;;;;;9.13;8.43;;;;;;;12.79;76.48;93006.69;5047699;28;20197;-80
2023/10/24 01:20:16;;;;;;;9.20;8.70;;;;;;;12.77;76.97;93013.28;5049140;28;20209;-80
2023/10/24 01:22:46;;;;;;;9.77;8.87;;;;;;;12.70;77.28;93002.38;5043245;28;20209;-77
2023/10/24 01:25:14;;;;;;;9.57;8.60;;;;;;;12.71;77.92;93004.72;5048675;28;20209;-80
2023/10/24 01:27:42;;;;;;;9.70;8.80;;;;;;;12.65;78.10;93002.44;5048215;28;20190;-80
2023/10/24 01:30:09;;;;;;;9.60;9.00;;;;;;;12.61;78.29;93007.44;5048767;28;20206;-80
2023/10/24 01:32:35;;;;;;;9.77;7.87;;;;;;;12.58;78.11;93010.63;5044212;28;20186;-80
2023/10/24 01:35:00;;;;;;;10.13;9.13;;;;;;;12.54;78.35;93008.84;5044984;28;20293;-81
2023/10/24 01:37:25;;;;;;;9.13;8.33;;;;;;;12.54;79.27;93001.78;5047867;28;20186;-80
2023/10/24 01:39:51;;;;;;;11.30;9.00;;;;;;;12.50;79.68;92997.34;5047261;28;20210;-80
2023/10/24 01:42:16;;;;;;;9.10;8.63;;;;;;;12.50;80.01;92997.34;5049451;28;20251;-85
2023/10/24 01:44:42;;;;;;;9.97;9.27;;;;;;;12.47;80.22;92997.91;5050956;28;20214;-80
2023/10/24 01:47:07;;;;;;;9.53;8.90;;;;;;;12.48;80.00;92991.66;5046774;28;20226;-80
2023/10/24 01:49:32;;;;;;;10.63;9.87;;;;;;;12.53;79.62;92996.78;5037959;28;20242;-80
2023/10/24 01:51:58;;;;;;;11.37;9.60;;;;;;;12.41;80.22;92980.72;5044467;28;20188;-80
2023/10/24 01:54:23;;;;;;;9.97;8.90;;;;;;;12.49;80.09;93001.03;5046769;28;20248;-80
2023/10/24 01:56:48;;;;;;;9.60;8.73;;;;;;;12.47;80.73;92998.72;5048791;28;20208;-80
2023/10/24 01:59:14;;;;;;;9.33;8.70;;;;;;;12.44;81.14;92988.00;5047757;28;20222;-80
2023/10/24 02:01:40;;;;;;;10.97;9.23;;;;;;;12.44;81.37;92985.38;5048740;28;20212;-80
2023/10/24 02:04:05;;;;;;;10.60;9.67;;;;;;;12.41;81.50;92988.56;5048143;28;20253;-80
2023/10/24 02:06:31;;;;;;;14.27;9.27;;;;;;;12.22;82.53;92990.34;5039114;28;20213;-81
2023/10/24 02:08:56;;;;;;;13.40;10.40;;;;;;;12.38;82.98;92989.91;5039711;28;20253;-80
2023/10/24 02:11:21;;;;;;;10.90;9.80;;;;;;;12.36;82.98;92991.25;5042120;28;20178;-80
2023/10/24 02:13:47;;;;;;;11.47;9.90;;;;;;;12.32;83.96;92982.41;5044393;28;20230;-80
2023/10/24 02:16:12;;;;;;;10.50;9.53;;;;;;;12.49;83.53;92988.75;5047422;28;20198;-79
2023/10/24 02:18:37;;;;;;;11.27;10.00;;;;;;;12.24;84.37;92977.78;5048199;28;20222;-81
2023/10/24 02:21:07;;;;;;;11.60;10.40;;;;;;;12.30;84.35;92984.50;5048966;28;20198;-80
2023/10/24 02:23:32;;;;;;;11.13;10.03;;;;;;;12.31;84.60;92979.00;5052920;28;20319;-80
2023/10/24 02:25:58;;;;;;;17.10;10.03;;;;;;;12.34;84.49;92988.13;5052658;28;20190;-80
2023/10/24 02:28:23;;;;;;;16.97;10.30;;;;;;;12.07;85.00;92972.19;5049679;28;20230;-81
2023/10/24 02:30:48;;;;;;;16.73;9.97;;;;;;;12.10;85.27;92982.13;5048494;28;20179;-80
2023/10/24 02:33:14;;;;;;;11.13;9.37;;;;;;;12.21;84.61;92984.34;5054240;28;20230;-82
2023/10/24 02:35:39;;;;;;;12.00;10.37;;;;;;;12.16;84.87;92981.78;5053782;28;20182;-80
2023/10/24 02:38:06;;;;;;;12.27;11.37;;;;;;;12.14;85.38;92980.50;5049546;28;20259;-82
2023/10/24 02:40:31;;;;;;;12.37;10.37;;;;;;;12.03;86.08;92973.81;5054015;28;20202;-80
2023/10/24 02:42:57;;;;;;;10.90;9.87;;;;;;;12.11;85.53;92984.44;5053909;28;20456;-80
2023/10/24 02:45:23;;;;;;;11.03;10.03;;;;;;;12.05;84.65;92990.00;5048183;28;20282;-78
2023/10/24 02:47:48;;;;;;;12.33;10.43;;;;;;;12.00;85.24;92988.22;5041392;28;20201;-80
2023/10/24 02:50:14;;;;;;;10.57;9.60;;;;;;;12.04;85.02;92983.22;5046876;28;20166;-79
2023/10/24 02:52:39;;;;;;;10.70;9.90;;;;;;;12.06;85.05;92991.59;5051471;28;20178;-79
2023/10/24 02:55:20;;;;;;;10.73;9.73;;;;;;;12.02;85.26;92991.34;5037275;28;20274;-79
2023/10/24 02:57:45;;;;;;;10.40;9.60;;;;;;;11.86;84.94;92983.94;5071593;28;20178;-78
2023/10/24 03:00:11;;;;;;;12.17;9.83;;;;;;;11.87;84.95;92994.13;5076255;28;20209;-80
2023/10/24 03:02:37;;;;;;;14.03;10.70;;;;;;;11.98;84.55;93000.03;5074527;28;20181;-80
2023/10/24 03:05:02;;;;;;;11.13;10.43;;;;;;;12.07;84.07;93007.00;5073698;28;20249;-80
2023/10/24 03:07:28;;;;;;;12.83;9.77;;;;;;;12.02;83.96;93007.06;5072054;28;20197;-81
2023/10/24 03:09:53;;;;;;;11.37;10.33;;;;;;;11.99;84.89;93007.63;5068658;28;20288;-80
2023/10/24 03:12:19;;;;;;;10.93;9.90;;;;;;;12.03;85.20;93007.84;5063854;28;20225;-81
2023/10/24 03:14:44;;;;;;;10.90;10.00;;;;;;;12.11;84.85;93007.25;5068232;28;20221;-80
2023/10/24 03:17:09;;;;;;;13.30;9.67;;;;;;;12.09;84.80;93011.97;5064343;28;20185;-80
2023/10/24 03:19:35;;;;;;;11.10;10.20;;;;;;;11.98;85.36;93006.06;5064926;28;20222;-80
2023/10/24 03:22:00;;;;;;;13.93;10.17;;;;;;;12.10;85.05;93016.13;5064796;28;20201;-77
2023/10/24 03:24:28;;;;;;;13.93;10.33;;;;;;;12.20;84.55;93021.28;5065130;28;20221;-78
2023/10/24 03:26:54;;;;;;;11.17;10.17;;;;;;;12.10;85.48;93023.97;5069629;28;20205;-80
2023/10/24 03:29:19;;;;;;;11.73;10.20;;;;;;;12.00;85.62;93029.34;5068258;28;20213;-80
2023/10/24 03:31:44;;;;;;;11.60;9.97;;;;;;;11.96;86.37;93029.09;5068714;28;20181;-83
2023/10/24 03:34:10;;;;;;;13.57;10.57;;;;;;;11.84;86.54;93036.53;5071291;28;20225;-80
2023/10/24 03:36:35;;;;;;;25.80;11.47;;;;;;;11.78;86.74;93029.00;5069770;28;20249;-81
2023/10/24 03:39:01;;;;;;;12.87;10.63;;;;;;;11.83;87.54;93039.44;5056660;28;20222;-81
2023/10/24 03:41:26;;;;;;;17.77;11.47;;;;;;;11.86;87.33;93028.41;5065394;28;20198;-82
2023/10/24 03:43:52;;;;;;;29.80;12.27;;;;;;;11.81;89.21;93031.06;5059660;28;20222;-80
2023/10/24 03:46:17;;;;;;;17.03;11.30;;;;;;;11.79;90.87;93030.56;5068168;28;20262;-86
2023/10/24 03:48:42;;;;;;;10.33;9.30;;;;;;;11.89;89.97;93031.25;5066478;28;20222;-86
2023/10/24 03:51:08;;;;;;;13.70;10.87;;;;;;;11.80;89.53;93032.91;5069497;28;20170;-89
2023/10/24 03:53:33;;;;;;;16.00;10.93;;;;;;;11.79;90.07;93027.94;5069709;28;20225;-85
2023/10/24 03:55:59;;;;;;;14.73;10.37;;;;;;;11.62;89.34;93012.63;5079506;28;20207;-78
2023/10/24 03:58:26;;;;;;;14.90;9.53;;;;;;;11.80;89.51;93030.28;5072809;28;20224;-88
2023/10/24 04:00:51;;;;;;;14.80;10.97;;;;;;;11.77;89.84;93032.66;5078509;28;20206;-84
2023/10/24 04:03:17;;;;;;;15.73;10.77;;;;;;;11.73;90.21;93034.28;5069640;28;20267;-80
2023/10/24 04:05:42;;;;;;;12.57;11.23;;;;;;;11.70;89.86;93035.63;5069198;28;20259;-78
2023/10/24 04:08:08;;;;;;;19.40;10.50;;;;;;;11.77;89.49;93040.50;5063870;28;20301;-77
2023/10/24 04:10:34;;;;;;;12.53;11.07;;;;;;;11.66;89.12;93033.81;5069096;28;20170;-89
2023/10/24 04:12:59;;;;;;;11.07;9.97;;;;;;;11.64;89.50;93030.69;5070868;28;20205;-82
2023/10/24 04:15:25;;;;;;;13.13;10.57;;;;;;;11.54;90.09;93031.53;5078910;28;20189;-86
2023/10/24 04:17:51;;;;;;;12.90;10.23;;;;;;;11.57;90.64;93033.59;5061197;28;20168;-92
2023/10/24 04:20:16;;;;;;;15.37;11.30;;;;;;;11.69;90.57;93041.88;5071079;28;20217;-82
2023/10/24 04:22:42;;;;;;;11.43;10.60;;;;;;;11.64;90.75;93041.94;5068989;28;20220;-78
2023/10/24 04:25:07;;;;;;;12.97;10.83;;;;;;;11.52;90.84;93035.47;5054412;28;20195;-79
2023/10/24 04:27:33;;;;;;;15.93;12.23;;;;;;;11.63;90.79;93045.59;5069182;28;20190;-85
2023/10/24 04:29:59;;;;;;;11.83;10.77;;;;;;;11.62;90.77;93043.22;5077269;28;20252;-78
2023/10/24 04:32:24;;;;;;;11.97;10.70;;;;;;;11.51;90.82;93041.75;5076531;28;20235;-84
2023/10/24 04:34:51;;;;;;;14.53;11.00;;;;;;;11.70;90.73;93053.13;5072636;28;20219;-85
2023/10/24 04:37:19;;;;;;;14.27;10.70;;;;;;;11.70;90.71;93050.53;5056320;28;20191;-88
2023/10/24 04:39:45;;;;;;;11.67;10.57;;;;;;;11.61;90.32;93028.59;5068343;28;20242;-80
2023/10/24 04:42:10;;;;;;;12.07;10.33;;;;;;;11.71;90.16;93052.06;5056343;28;20224;-80
2023/10/24 04:44:36;;;;;;;20.13;10.30;;;;;;;11.70;90.15;93067.00;5051316;28;20234;-81
2023/10/24 04:47:01;;;;;;;12.00;10.60;;;;;;;11.59;91.25;93060.25;5051584;28;20225;-87
2023/10/24 04:49:26;;;;;;;14.23;10.03;;;;;;;11.68;90.99;93063.09;5050229;28;20229;-77
2023/10/24 04:51:52;;;;;;;11.33;10.37;;;;;;;11.63;91.74;93060.50;5048210;28;20270;-78
2023/10/24 04:54:17;;;;;;;13.70;11.27;;;;;;;11.70;91.54;93074.06;5048391;28;20224;-82
2023/10/24 04:56:43;;;;;;;15.70;10.90;;;;;;;11.53;91.92;93050.91;5048830;28;20182;-81
2023/10/24 04:59:08;;;;;;;14.63;12.27;;;;;;;11.71;91.79;93067.75;5047677;28;20227;-83
2023/10/24 05:01:37;;;;;;;26.20;12.17;;;;;;;11.70;92.11;93066.22;5047578;28;20191;-79
2023/10/24 05:04:07;;;;;;;15.03;12.30;;;;;;;11.67;91.47;93067.56;5043219;28;20228;-81
2023/10/24 05:06:33;;;;;;;18.00;11.33;;;;;;;11.75;91.51;93074.78;5075233;28;20233;-80
2023/10/24 05:08:59;;;;;;;14.63;11.73;;;;;;;11.79;91.90;93075.81;5033371;28;20221;-80
2023/10/24 05:11:25;;;;;;;11.47;10.47;;;;;;;11.87;91.29;93074.44;5044282;28;20213;-81
2023/10/24 05:13:50;;;;;;;16.60;10.97;;;;;;;11.92;91.36;93085.63;5041928;28;20257;-80
2023/10/24 05:16:16;;;;;;;19.03;10.90;;;;;;;12.05;91.03;93090.25;5048823;28;20186;-78
2023/10/24 05:18:41;;;;;;;20.93;10.90;;;;;;;12.01;90.42;93076.16;5040075;28;20261;-80
2023/10/24 05:21:07;;;;;;;14.63;11.00;;;;;;;12.08;91.49;93096.75;5048941;28;20203;-80
2023/10/24 05:23:32;;;;;;;16.23;11.37;;;;;;;12.18;91.34;93102.69;5043217;28;20469;-81
2023/10/24 05:25:57;;;;;;;14.17;10.97;;;;;;;12.21;91.33;93104.75;5048604;28;20191;-81
2023/10/24 05:28:23;;;;;;;15.83;10.70;;;;;;;12.13;91.81;93110.59;5044296;28;20233;-80
2023/10/24 05:30:48;;;;;;;13.47;11.17;;;;;;;12.10;92.61;93102.50;5039025;28;20171;-77
2023/10/24 05:33:14;;;;;;;17.67;11.17;;;;;;;12.14;92.42;93106.91;5038761;28;20229;-78
2023/10/24 05:35:48;;;;;;;14.43;11.23;;;;;;;12.14;92.35;93103.53;5042714;28;20199;-78
2023/10/24 05:38:14;;;;;;;18.53;11.43;;;;;;;12.16;92.82;93104.00;5042832;28;20253;-76
2023/10/24 05:45:51;;;;;;;15.80;11.43;;;;;;;12.14;92.03;93103.53;5126139;27;20585;-77
2023/10/24 05:48:16;;;;;;;16.47;12.30;;;;;;;12.19;91.90;93111.31;5073892;28;20241;-75
2023/10/24 05:50:43;;;;;;;14.17;12.27;;;;;;;12.28;91.57;93112.31;5044752;28;20174;-82
2023/10/24 05:53:08;;;;;;;18.13;13.30;;;;;;;12.39;91.68;93116.38;5050038;28;20233;-85
2023/10/24 05:55:34;;;;;;;20.87;13.37;;;;;;;12.58;91.16;93111.97;5046163;28;20229;-86
2023/10/24 05:57:59;;;;;;;15.70;11.40;;;;;;;12.57;90.81;93103.38;5049239;28;20233;-86
2023/10/24 06:00:24;;;;;;;23.33;12.50;;;;;;;12.75;90.46;93107.09;5048974;28;20186;-87
2023/10/24 06:02:50;;;;;;;21.20;12.27;;;;;;;12.87;89.81;93108.25;5046725;28;20198;-85
2023/10/24 06:05:15;;;;;;;16.27;11.73;;;;;;;12.93;89.80;93101.13;5047156;28;20273;-85
2023/10/24 06:07:41;;;;;;;22.83;12.97;;;;;;;13.06;89.68;93097.84;5051319;28;20273;-78
2023/10/24 06:10:07;;;;;;;25.67;12.13;;;;;;;13.25;88.60;93096.03;5046778;28;20267;-87
2023/10/24 06:12:32;;;;;;;18.63;12.47;;;;;;;13.33;88.86;93100.66;5052003;28;20174;-87
2023/10/24 06:14:57;;;;;;;16.10;11.83;;;;;;;13.41;89.07;93100.00;5046797;28;20301;-86
2023/10/24 06:17:23;;;;;;;20.27;12.17;;;;;;;13.60;87.98;93100.81;5045660;28;20182;-87
2023/10/24 06:19:49;;;;;;;16.07;12.30;;;;;;;13.63;87.88;93092.34;5045310;28;20256;-85
2023/10/24 06:22:16;;;;;;;14.43;11.37;;;;;;;13.81;87.40;93107.28;5045716;28;20181;-86
2023/10/24 06:24:41;;;;;;;26.33;13.20;;;;;;;13.70;87.29;93108.50;5045902;28;20282;-86
2023/10/24 06:27:09;;;;;;;19.87;13.43;;;;;;;13.80;86.06;93105.75;5045536;28;20190;-86
2023/10/24 06:29:34;;;;;;;19.87;12.87;;;;;;;13.93;85.31;93115.50;5045161;28;20244;-88
2023/10/24 06:32:00;;;;;;;27.30;13.20;;;;;;;13.83;86.09;93107.81;5045735;28;20214;-85
2023/10/24 06:34:25;;;;;;;21.73;12.97;;;;;;;13.99;85.66;93101.22;5044885;28;20281;-88
2023/10/24 06:36:50;;;;;;;20.63;14.67;;;;;;;14.09;85.10;93124.72;5044683;28;21910;-84
2023/10/24 06:39:16;;;;;;;18.90;14.53;;;;;;;14.26;83.87;93116.31;5044931;28;20206;-85
2023/10/24 06:41:41;;;;;;;28.43;14.77;;;;;;;14.25;84.24;93112.16;5048476;28;20197;-81
2023/10/24 06:44:07;;;;;;;23.67;15.20;;;;;;;14.17;84.10;93112.78;5050612;28;20210;-82
2023/10/24 06:46:32;;;;;;;24.23;13.93;;;;;;;14.28;83.81;93108.94;5045234;28;20188;-83
2023/10/24 06:48:58;;;;;;;19.50;14.60;;;;;;;14.01;84.50;93114.84;5044492;28;20222;-84
2023/10/24 06:51:24;;;;;;;31.00;14.87;;;;;;;13.92;85.92;93113.94;5045062;28;20194;-84
2023/10/24 06:53:49;;;;;;;25.70;15.87;;;;;;;13.98;85.88;93115.44;5053869;28;20213;-85
2023/10/24 06:56:15;;;;;;;27.73;15.23;;;;;;;14.03;85.54;93117.97;5066536;28;20237;-86
2023/10/24 06:58:40;;;;;;;30.00;15.60;;;;;;;14.34;83.82;93115.66;5054910;28;20246;-86
2023/10/24 07:01:05;;;;;;;37.87;16.50;;;;;;;14.36;83.46;93114.31;5051374;28;20246;-85
2023/10/24 07:03:31;;;;;;;21.27;15.40;;;;;;;14.25;83.90;93110.31;5044661;28;20282;-87
2023/10/24 07:05:56;;;;;;;21.10;14.93;;;;;;;14.35;84.14;93111.97;5035111;28;20229;-82
2023/10/24 07:08:22;;;;;;;26.63;16.07;;;;;;;14.41;84.14;93108.97;5041171;28;20217;-82
2023/10/24 07:10:48;;;;;;;23.47;16.60;;;;;;;14.62;82.93;93113.84;5054656;28;20185;-82
2023/10/24 07:13:14;;;;;;;30.93;15.83;;;;;;;14.80;81.74;93102.50;5050696;28;20225;-83
2023/10/24 07:15:40;;;;;;;36.67;17.63;;;;;;;14.75;82.07;93103.38;5054473;28;20209;-83
2023/10/24 07:18:06;;;;;;;31.13;17.87;;;;;;;14.51;83.98;93104.63;5047281;28;20225;-84
2023/10/24 07:20:38;;;;;;;31.30;18.27;;;;;;;14.39;83.63;93092.72;5031090;28;20167;-84
2023/10/24 07:23:04;;;;;;;26.33;15.90;;;;;;;14.66;82.51;93101.72;5030954;28;20223;-81
2023/10/24 07:25:31;;;;;;;34.73;16.37;;;;;;;14.80;81.87;93103.25;5030816;28;20230;-81
2023/10/24 07:27:57;;;;;;;38.67;17.07;;;;;;;14.46;83.48;93087.06;5031088;28;20424;-77
2023/10/24 07:30:23;;;;;;;25.33;16.80;;;;;;;14.84;81.95;93103.47;5031100;28;20195;-80
2023/10/24 07:32:49;;;;;;;30.30;15.63;;;;;;;14.87;81.90;93092.34;5030354;28;20246;-82
2023/10/24 07:35:14;;;;;;;26.67;17.50;;;;;;;14.85;82.23;93103.16;5032228;28;20187;-82
2023/10/24 07:37:40;;;;;;;29.47;17.23;;;;;;;15.07;81.26;93097.22;5031685;28;20183;-81
2023/10/24 07:40:06;;;;;;;38.03;16.60;;;;;;;15.36;80.27;93097.69;5050736;28;20270;-81
2023/10/24 07:42:31;;;;;;;29.50;17.40;;;;;;;15.39;80.07;93087.38;5051305;28;20771;-80
2023/10/24 07:44:57;;;;;;;23.10;17.93;;;;;;;15.56;79.09;93084.91;5049963;28;20340;-79
2023/10/24 07:47:22;;;;;;;30.67;16.03;;;;;;;15.15;80.73;93073.66;5051000;28;20174;-80
2023/10/24 07:49:48;;;;;;;25.33;15.90;;;;;;;15.65;79.85;93087.59;5052446;28;20214;-80
2023/10/24 07:52:13;;;;;;;30.17;16.53;;;;;;;15.51;80.53;93089.50;5051864;28;20206;-82
2023/10/24 07:54:38;;;;;;;39.57;16.10;;;;;;;15.94;79.15;93098.50;5049538;28;20226;-81
2023/10/24 07:57:04;;;;;;;23.73;15.97;;;;;;;15.97;78.79;93079.47;5052683;28;20209;-79
2023/10/24 07:59:30;;;;;;;25.90;16.73;;;;;;;16.20;77.94;93078.41;5055584;28;20241;-81
2023/10/24 08:01:55;;;;;;;39.23;18.10;;;;;;;16.21;77.69;93069.41;5050809;28;20241;-81
2023/10/24 08:04:20;;;;;;;29.87;16.90;;;;;;;16.56;76.41;93081.72;5050241;28;20224;-83
2023/10/24 08:06:46;;;;;;;32.67;16.77;;;;;;;16.65;76.63;93085.19;5080434;28;20213;-83
2023/10/24 08:09:11;;;;;;;28.03;16.40;;;;;;;16.81;75.71;93085.56;5048993;28;20205;-80
2023/10/24 08:11:37;;;;;;;29.47;15.63;;;;;;;16.77;74.80;93087.25;5052915;28;20189;-77
2023/10/24 08:14:02;;;;;;;25.57;16.43;;;;;;;16.80;74.87;93082.16;5051417;28;20317;-78
2023/10/24 08:16:27;;;;;;;36.47;15.23;;;;;;;16.84;74.10;93085.72;5050450;28;20293;-80
2023/10/24 08:18:53;;;;;;;30.03;15.40;;;;;;;17.07;72.22;93091.72;5050505;28;20252;-81
2023/10/24 08:21:18;;;;;;;27.60;15.67;;;;;;;17.36;70.75;93099.84;5050260;28;20212;-81
2023/10/24 08:23:43;;;;;;;32.13;14.60;;;;;;;17.17;70.13;93099.31;5049307;28;20214;-84
2023/10/24 08:26:09;;;;;;;19.47;13.33;;;;;;;17.31;69.46;93084.94;5049917;28;20216;-87
2023/10/24 08:28:34;;;;;;;25.87;13.80;;;;;;;17.53;68.94;93092.78;5048224;28;20230;-86
2023/10/24 08:30:59;;;;;;;23.63;14.40;;;;;;;17.28;69.47;93088.19;5050261;28;20190;-83
2023/10/24 08:33:25;;;;;;;23.20;13.73;;;;;;;17.38;69.37;93081.84;5052427;28;20327;-82
2023/10/24 08:35:50;;;;;;;22.37;13.60;;;;;;;17.36;69.77;93084.81;5050095;28;20178;-81
2023/10/24 08:38:16;;;;;;;20.53;13.93;;;;;;;17.17;71.61;93081.66;5049511;28;20229;-82
2023/10/24 08:40:41;;;;;;;26.30;12.80;;;;;;;16.94;71.01;93074.13;5049732;28;20191;-80
2023/10/24 08:43:10;;;;;;;19.07;12.47;;;;;;;17.24;70.13;93066.16;5049141;28;20240;-80
2023/10/24 08:45:36;;;;;;;27.53;14.50;;;;;;;17.28;70.65;93067.09;5051288;28;20240;-83
2023/10/24 08:48:05;;;;;;;26.43;12.40;;;;;;;17.70;68.49;93062.94;5047850;28;20242;-83
2023/10/24 08:50:31;;;;;;;26.13;14.03;;;;;;;17.96;67.19;93063.72;5050163;28;20192;-82
2023/10/24 08:52:57;;;;;;;20.47;13.70;;;;;;;17.98;67.32;93060.78;5050273;28;20190;-83
2023/10/24 08:55:23;;;;;;;22.80;12.33;;;;;;;18.26;66.27;93048.75;5057287;28;20186;-84
2023/10/24 08:57:49;;;;;;;17.97;12.80;;;;;;;18.45;66.04;93062.44;5051679;28;20189;-83
2023/10/24 09:00:16;;;;;;;21.13;12.13;;;;;;;18.59;65.67;93057.72;5050030;28;20672;-85
2023/10/24 09:02:42;;;;;;;22.63;13.10;;;;;;;18.83;64.11;93057.97;5049747;28;20207;-80
2023/10/24 09:05:12;;;;;;;22.27;13.67;;;;;;;18.86;63.29;93049.38;5030124;28;20215;-82
2023/10/24 09:07:38;;;;;;;17.27;11.83;;;;;;;18.93;62.87;93053.09;5030012;28;20183;-82
2023/10/24 09:10:04;;;;;;;20.97;11.83;;;;;;;18.82;63.72;93046.59;5049528;28;20256;-78
2023/10/24 09:12:31;;;;;;;22.40;13.80;;;;;;;18.97;62.56;93048.69;5049177;28;20237;-82
2023/10/24 09:14:56;;;;;;;25.90;15.17;;;;;;;18.98;62.50;93033.59;5048831;28;20218;-87
2023/10/24 09:17:23;;;;;;;28.97;13.67;;;;;;;19.18;62.18;93038.16;5049882;28;20210;-88
2023/10/24 09:19:48;;;;;;;21.97;12.40;;;;;;;18.91;62.79;93028.03;5031333;28;20242;-88
2023/10/24 09:22:17;;;;;;;23.10;11.43;;;;;;;19.18;61.10;93035.50;5029106;28;20196;-89
2023/10/24 09:24:45;;;;;;;30.23;12.30;;;;;;;19.34;59.79;93036.53;5028104;28;20236;-93
2023/10/24 09:27:10;;;;;;;18.67;12.43;;;;;;;19.60;58.86;93042.44;5028283;28;20184;-90
2023/10/24 09:29:36;;;;;;;18.93;12.50;;;;;;;19.12;60.58;93029.63;5034808;28;20216;-91
2023/10/24 09:32:01;;;;;;;16.37;12.17;;;;;;;19.04;60.48;93037.63;5032775;28;20199;-83
2023/10/24 09:34:27;;;;;;;27.50;11.87;;;;;;;19.11;60.66;93036.00;5025747;28;20240;-89
2023/10/24 09:36:52;;;;;;;24.07;11.33;;;;;;;19.05;60.78;93028.59;5031485;28;20183;-86
2023/10/24 09:39:18;;;;;;;17.77;10.77;;;;;;;19.51;59.37;93038.28;5036858;28;20230;-77
2023/10/24 09:41:45;;;;;;;17.43;11.70;;;;;;;19.70;58.63;93034.13;5032181;28;20251;-87
2023/10/24 09:44:11;;;;;;;22.33;11.83;;;;;;;19.45;58.87;93031.63;5033263;28;20295;-87
2023/10/24 09:46:38;;;;;;;21.87;11.43;;;;;;;19.62;59.02;93032.31;5027691;28;20196;-88
2023/10/24 09:49:05;;;;;;;26.53;11.90;;;;;;;19.74;58.90;93034.22;5038255;28;20219;-83
2023/10/24 09:51:31;;;;;;;18.63;11.77;;;;;;;19.95;57.01;93030.47;5031825;28;20182;-88
2023/10/24 09:53:58;;;;;;;13.50;11.50;;;;;;;19.31;58.57;93020.50;5031566;28;20223;-91
2023/10/24 09:56:25;;;;;;;19.60;11.30;;;;;;;19.57;57.79;93024.53;5034834;28;20291;-77
2023/10/24 09:58:51;;;;;;;17.97;11.17;;;;;;;19.72;58.57;93017.88;5038824;28;20216;-78
2023/10/24 10:01:17;;;;;;;22.40;11.43;;;;;;;20.03;56.74;93021.66;5028832;28;20165;-79
2023/10/24 10:03:43;;;;;;;16.30;11.50;;;;;;;20.09;56.35;93006.34;5043482;28;20979;-75
2023/10/24 10:06:13;;;;;;;18.30;10.40;;;;;;;20.04;56.08;93017.13;5052562;28;20187;-78
2023/10/24 10:08:41;;;;;;;21.50;11.07;;;;;;;19.97;57.04;93022.94;5048382;28;20220;-79
2023/10/24 10:11:07;;;;;;;20.10;10.97;;;;;;;19.47;57.39;93014.31;5048248;28;20181;-84
2023/10/24 10:13:35;;;;;;;18.63;11.03;;;;;;;19.24;58.71;93015.69;5050089;28;20307;-79
2023/10/24 10:16:01;;;;;;;16.87;10.40;;;;;;;19.25;58.55;93009.31;5048792;28;20251;-80
2023/10/24 10:19:08;;;;;;;13.40;10.27;;;;;;;19.75;58.02;93007.41;5050373;28;20215;-79
2023/10/24 10:21:51;;;;;;;22.27;11.10;;;;;;;19.69;58.11;92990.16;5042995;28;20216;-80
2023/10/24 10:24:22;;;;;;;28.10;10.67;;;;;;;19.89;56.49;92997.28;5028267;28;20292;-79
2023/10/24 10:27:06;;;;;;;21.97;11.37;;;;;;;20.05;56.79;92998.25;5025412;28;20192;-80
2023/10/24 10:30:03;;;;;;;23.77;11.17;;;;;;;20.28;55.20;92996.78;5026780;28;20244;-79
2023/10/24 10:32:49;;;;;;;16.77;11.03;;;;;;;20.26;55.82;92999.00;5028304;28;20192;-81
2023/10/24 10:35:15;;;;;;;23.83;11.67;;;;;;;19.98;55.49;92991.94;5050222;28;20205;-81
2023/10/24 10:37:40;;;;;;;18.87;11.60;;;;;;;20.33;54.74;92990.50;5051834;28;20332;-72
2023/10/24 10:40:14;;;;;;;18.50;10.80;;;;;;;20.45;55.42;92985.25;5052231;28;20201;-81
2023/10/24 10:42:50;;;;;;;17.73;11.03;;;;;;;20.51;53.93;92963.44;5050943;28;20190;-73
2023/10/24 10:45:32;;;;;;;22.53;10.97;;;;;;;20.89;53.58;92973.75;5050495;28;20231;-80
2023/10/24 10:47:59;;;;;;;18.15;11.52;;;;;;;20.20;55.59;92968.47;5048882;28;20203;-82
2023/10/24 10:50:30;;;;;;;20.43;11.17;;;;;;;20.86;54.23;92963.03;5031972;28;20186;-81
2023/10/24 10:53:24;;;;;;;16.27;10.77;;;;;;;20.82;53.70;92962.13;5030970;28;20186;-76
2023/10/24 10:56:11;;;;;;;16.87;11.20;;;;;;;21.14;52.77;92947.97;5031724;28;20183;-81
2023/10/24 10:58:43;;;;;;;19.38;10.77;;;;;;;21.19;52.90;92950.41;5038952;28;20267;-79
2023/10/24 11:01:21;;;;;;;20.40;11.43;;;;;;;21.14;52.95;92947.97;5052155;28;20192;-81
2023/10/24 11:03:48;;;;;;;14.13;10.68;;;;;;;21.15;52.01;92944.22;5055638;28;20287;-79
2023/10/24 11:06:15;;;;;;;17.60;10.53;;;;;;;21.22;52.46;92950.50;5059870;28;20205;-78
2023/10/24 11:09:03;;;;;;;22.42;11.38;;;;;;;21.44;51.21;92936.72;5041928;28;20251;-79
2023/10/24 11:11:28;;;;;;;24.97;11.17;;;;;;;21.56;51.31;92930.59;5022578;28;20212;-78
2023/10/24 11:14:21;;;;;;;18.03;10.13;;;;;;;21.39;50.13;92913.06;5047629;28;20228;-81
2023/10/24 11:16:49;;;;;;;22.27;10.77;;;;;;;21.59;51.01;92921.94;5048423;28;20220;-78
2023/10/24 11:19:19;;;;;;;14.15;10.20;;;;;;;21.56;51.17;92919.97;5050125;28;20220;-79
2023/10/24 11:21:47;;;;;;;14.27;10.73;;;;;;;21.66;51.93;92911.53;5050611;28;20185;-81